• Join FlightAware (Why Join?)
  • Login
  • US Flag 
01:09PM EDT


 

Airport Tracker/Info


-or-


 

Live Flight TrackerFlight Track Log ✈ VOZ9502 ✈ 15-Nov-2013 ✈ AYPY / POM - YBBN / BNE

Flight Track Log - Related Links

Times and Time Zones

All times are in EST time to prevent confusion due to time zone crossing. See the VOZ9502 flight status page for this flight to view local times or setup timezone preferences in your user account.

Time Position Orientation Groundspeed Altitude Reporting Facility
EST Latitude Longitude Course Direction KTS MPH feet Rate Location/Type
12:31AM -13.7941 148.6015 163° South 429 494 40,900  Level Aus ATC (RADAR)
12:31AM -13.8222 148.6106 163° South 422 486 40,900  Level Aus ATC (RADAR)
12:32AM -13.8889 148.6330 162° South 425 489 40,900  Level Aus ATC (RADAR)
12:32AM -13.9828 148.6629 163° South 423 487 40,900  Level Aus ATC (RADAR)
12:33AM -14.0591 148.6880 162° South 426 490 40,900  Level Aus ATC (RADAR)
12:34AM -14.1453 148.7166 162° South 429 494 40,900  Level Aus ATC (RADAR)
12:34AM -14.1924 148.7311 163° South 427 491 40,900  Level Aus ATC (RADAR)
12:35AM -14.3252 148.7736 163° South 427 491 40,900  Level Aus ATC (RADAR)
12:36AM -14.3822 148.7919 163° South 426 490 40,900  Level Aus ATC (RADAR)
12:36AM -14.4205 148.8043 163° South 427 491 40,900  Level Aus ATC (RADAR)
12:37AM -14.4879 148.8264 162° South 430 495 40,900  Level Aus ATC (RADAR)
12:37AM -14.5255 148.8387 162° South 430 495 40,900  Level Aus ATC (RADAR)
12:39AM -14.7401 148.9064 163° South 417 480 40,900  Level Aus ATC (RADAR)
12:39AM -14.7686 148.9155 163° South 419 482 40,900  Level Aus ATC (RADAR)
12:40AM -14.8763 148.9517 162° South 434 499 40,900  Level Aus ATC (RADAR)
12:41AM -14.9330 148.9699 163° South 433 498 40,900  Level Aus ATC (RADAR)
12:41AM -14.9808 148.9856 162° South 431 496 40,900  Level Aus ATC (RADAR)
12:42AM -15.0576 149.0108 162° South 431 496 40,900  Level Aus ATC (RADAR)
12:42AM -15.1264 149.0332 163° South 437 503 40,900  Level Aus ATC (RADAR)
12:43AM -15.1927 149.0550 162° South 432 497 40,900  Level Aus ATC (RADAR)
12:44AM -15.2781 149.0829 162° South 429 494 40,900  Level Aus ATC (RADAR)
12:44AM -15.3258 149.0986 162° South 430 495 40,900  Level Aus ATC (RADAR)
12:45AM -15.3938 149.1209 163° South 433 498 40,900  Level Aus ATC (RADAR)
12:46AM -15.5328 149.1668 162° South 423 487 40,900  Level Aus ATC (RADAR)
12:46AM -15.5615 149.1761 163° South 423 487 40,900  Level Aus ATC (RADAR)
12:47AM -15.6290 149.1986 162° South 429 494 40,900  Level Aus ATC (RADAR)
12:48AM -15.7267 149.2309 162° South 439 505 40,900  Level Aus ATC (RADAR)
12:48AM -15.7938 149.2529 162° South 438 504 40,900  Level Aus ATC (RADAR)
12:49AM -15.8890 149.2842 162° South 433 498 40,900  Level Aus ATC (RADAR)
12:49AM -15.9372 149.3000 163° South 433 498 40,900 120 Level Aus ATC (RADAR)
12:50AM -15.9590 149.3070 162° South 433 498 41,000 120 Climbing FlightAware
12:50AM -16.0190 149.3270 162° South 433 498 41,000 -180 Level FlightAware
12:50AM -16.0520 149.3384 162° South 433 498 40,900 -180 Descending Aus ATC (RADAR)
12:51AM -16.1109 149.3580 162° South 439 505 40,900  Level Aus ATC (RADAR)
12:51AM -16.1497 149.3704 163° South 438 504 40,900 240 Level Aus ATC (RADAR)
12:51AM -16.1260 149.3630 163° South 433 498 41,000 240 Climbing FlightAware
12:52AM -16.1650 149.3760 163° South 433 498 41,000 -180 Level FlightAware
12:52AM -16.2151 149.3922 163° South 433 498 40,900  Descending Aus ATC (RADAR)
12:52AM -16.2240 149.3960 163° South 433 498 41,000  Climbing FlightAware
12:53AM -16.2995 149.4203 163° South 428 493 40,900 -120 Descending Aus ATC (RADAR)
12:53AM -16.3727 149.4453 163° South 428 493 40,900 120 Level Aus ATC (RADAR)
12:53AM -16.3220 149.4300 163° South 433 498 41,000  Climbing FlightAware
12:54AM -16.4586 149.4738 163° South 431 496 40,900  Descending Aus ATC (RADAR)
12:54AM -16.4020 149.4560 162° South 433 498 41,000  Climbing FlightAware
12:54AM -16.5159 149.4929 162° South 432 497 40,900  Descending Aus ATC (RADAR)
12:55AM -16.4620 149.4770 161° South 433 498 41,000 120 Climbing FlightAware
12:55AM -16.5200 149.4960 161° South 433 498 41,000 -180 Level FlightAware
12:55AM -16.6301 149.5306 161° South 431 496 40,900  Descending Aus ATC (RADAR)
12:56AM -16.5780 149.5160 161° South 433 498 41,000  Climbing FlightAware
12:56AM -16.6874 149.5503 161° South 433 498 40,900 -240 Descending Aus ATC (RADAR)
12:56AM -16.7341 149.5655 161° South 428 493 40,900 180 Level Aus ATC (RADAR)
12:56AM -16.6370 149.5360 161° South 433 498 41,000 120 Climbing FlightAware
12:57AM -16.6950 149.5560 162° South 433 498 41,000 -120 Level FlightAware
12:58AM -16.8872 149.6168 162° South 433 498 40,900  Descending Aus ATC (RADAR)
12:58AM -16.9340 149.6320 163° South 434 499 41,000  Climbing FlightAware
12:58AM -16.9552 149.6388 163° South 436 502 40,900  Descending Aus ATC (RADAR)
12:59AM -17.0120 149.6590 163° South 434 499 41,000  Climbing FlightAware
12:59AM -17.0504 149.6708 163° South 434 499 40,900 -180 Descending Aus ATC (RADAR)
01:00AM -17.0994 149.6879 163° South 439 505 40,900 60 Level Aus ATC (RADAR)
01:00AM -17.1460 149.7030 163° South 436 502 41,000  Climbing FlightAware
01:01AM -17.2643 149.7441 163° South 441 507 40,900  Descending Aus ATC (RADAR)
01:01AM -17.2790 149.7470 162° South 437 503 41,000  Climbing FlightAware
01:01AM -17.3025 149.7568 162° South 438 504 40,900 -180 Descending Aus ATC (RADAR)
01:02AM -17.3702 149.7797 162° South 439 505 40,900 120 Level Aus ATC (RADAR)
01:02AM -17.3990 149.7880 162° South 437 503 41,000 120 Climbing FlightAware
01:03AM -17.4490 149.8040 162° South 437 503 41,000 -240 Level FlightAware
01:03AM -17.4566 149.8083 162° South 435 501 40,900  Descending Aus ATC (RADAR)
01:03AM -17.5150 149.8270 162° South 435 501 41,000  Climbing FlightAware
01:03AM -17.5340 149.8347 162° South 438 504 40,900  Descending Aus ATC (RADAR)
01:04AM -17.5970 149.8540 162° South 435 501 41,000  Climbing FlightAware
01:04AM -17.6200 149.8635 162° South 434 499 40,900 -180 Descending Aus ATC (RADAR)
01:04AM -17.6684 149.8797 162° South 438 504 40,900 240 Level Aus ATC (RADAR)
01:04AM -17.6680 149.8780 162° South 436 502 41,000 180 Climbing FlightAware
01:05AM -17.7270 149.8980 162° South 437 503 41,000 -180 Level FlightAware
01:05AM -17.7352 149.9018 162° South 433 498 40,900  Descending Aus ATC (RADAR)
01:06AM -17.8300 149.9330 162° South 437 503 41,000  Climbing FlightAware
01:06AM -17.8704 149.9474 162° South 436 502 40,900 -180 Descending Aus ATC (RADAR)
01:06AM -17.8996 149.9576 162° South 439 505 40,900 180 Level Aus ATC (RADAR)
01:07AM -17.9200 149.9640 162° South 437 503 41,000  Climbing FlightAware
01:07AM -17.9667 149.9801 162° South 436 502 40,900  Descending Aus ATC (RADAR)
01:08AM -18.0020 149.9910 162° South 437 503 41,000  Climbing FlightAware
01:08AM -18.0442 150.0064 162° South 440 506 40,900  Descending Aus ATC (RADAR)
01:08AM -18.0610 150.0120 162° South 437 503 41,000  Climbing FlightAware
01:08AM -18.1120 150.0296 162° South 440 506 40,900 -120 Descending Aus ATC (RADAR)
01:09AM -18.1995 150.0592 162° South 440 506 40,900 60 Level Aus ATC (RADAR)
01:09AM -18.2180 150.0650 162° South 442 509 41,000  Climbing FlightAware
01:09AM -18.2488 150.0760 162° South 444 511 40,900 -120 Descending Aus ATC (RADAR)
01:10AM -18.3171 150.0996 162° South 445 512 40,900 120 Level Aus ATC (RADAR)
01:10AM -18.3200 150.0990 162° South 443 510 41,000 180 Climbing FlightAware
01:10AM -18.3680 150.1160 161° South 443 510 41,000 -120 Level FlightAware
01:11AM -18.4733 150.1524 161° South 443 510 40,900 -120 Descending Aus ATC (RADAR)
01:12AM -18.5218 150.1691 162° South 441 507 40,900 180 Level Aus ATC (RADAR)
01:12AM -18.5300 150.1710 162° South 442 509 41,000  Climbing FlightAware
01:12AM -18.5995 150.1953 162° South 439 505 40,900  Descending Aus ATC (RADAR)
01:12AM -18.6000 150.1950 162° South 441 507 41,000  Climbing FlightAware
01:13AM -18.6679 150.2189 162° South 441 507 40,900  Descending Aus ATC (RADAR)
01:13AM -18.6680 150.2180 162° South 441 507 41,000  Climbing FlightAware
01:14AM -18.7362 150.2422 162° South 444 511 40,900  Descending Aus ATC (RADAR)
01:14AM -18.7780 150.2570 162° South 439 505 41,000  Climbing FlightAware
01:14AM -18.8230 150.2717 162° South 439 505 40,900  Descending Aus ATC (RADAR)
01:14AM -18.8170 150.2710 162° South 439 505 41,000  Climbing FlightAware
01:15AM -18.8808 150.2913 162° South 438 504 40,900 -120 Descending Aus ATC (RADAR)
01:15AM -18.9479 150.3144 162° South 436 502 40,900 120 Level Aus ATC (RADAR)
01:16AM -18.9350 150.3140 162° South 439 505 41,000 120 Climbing FlightAware
01:16AM -18.9940 150.3350 162° South 439 505 41,000 -120 Level FlightAware
01:17AM -19.0828 150.3608 162° South 438 504 40,900 -180 Descending Aus ATC (RADAR)
01:17AM -19.1119 150.3705 162° South 438 504 40,900 120 Level Aus ATC (RADAR)
01:17AM -19.0920 150.3710 162° South 439 505 41,000  Climbing FlightAware
01:17AM -19.1789 150.3936 162° South 441 507 40,900  Descending Aus ATC (RADAR)
01:18AM -19.1520 150.3930 161° South 439 505 41,000 120 Climbing FlightAware
01:18AM -19.1910 150.4070 161° South 439 505 41,000 -120 Level FlightAware
01:19AM -19.3431 150.4501 161° South 440 506 40,900  Descending Aus ATC (RADAR)
01:19AM -19.2890 150.4430 162° South 439 505 41,000  Climbing FlightAware
01:20AM -19.4301 150.4801 162° South 440 506 40,900 -180 Descending Aus ATC (RADAR)
01:20AM -19.4785 150.4970 162° South 442 509 40,900 120 Level Aus ATC (RADAR)
01:20AM -19.3890 150.4790 162° South 439 505 41,000  Climbing FlightAware
01:21AM -19.5561 150.5234 162° South 440 506 40,900  Descending Aus ATC (RADAR)
01:21AM -19.4480 150.5000 161° South 439 505 41,000 120 Climbing FlightAware
01:21AM -19.5060 150.5220 161° South 439 505 41,000 -120 Level FlightAware
01:22AM -19.6825 150.5671 161° South 442 509 40,900  Descending Aus ATC (RADAR)
01:22AM -19.5450 150.5360 161° South 439 505 41,000  Climbing FlightAware
01:22AM -19.7120 150.5773 161° South 444 511 40,900 -180 Descending Aus ATC (RADAR)
01:23AM -19.7801 150.6010 161° South 443 510 40,900 60 Level Aus ATC (RADAR)
01:23AM -19.6650 150.5800 162° South 439 505 41,000  Climbing FlightAware
01:23AM -19.8763 150.6342 162° South 440 506 40,900  Descending Aus ATC (RADAR)
01:24AM -19.7040 150.5940 161° South 439 505 41,000  Climbing FlightAware
01:24AM -19.9452 150.6578 161° South 445 512 40,900 -120 Descending Aus ATC (RADAR)
01:25AM -20.0040 150.6784 162° South 445 512 40,900  Level Aus ATC (RADAR)
01:25AM -20.0730 150.7020 162° South 446 513 40,900  Level Aus ATC (RADAR)
01:26AM -20.1420 150.7258 162° South 445 512 40,900  Level Aus ATC (RADAR)
01:27AM -20.2902 150.7779 162° South 450 518 40,900  Level Aus ATC (RADAR)
01:27AM -20.3390 150.7947 162° South 445 512 40,900  Level Aus ATC (RADAR)
01:28AM -20.4178 150.8221 162° South 448 516 40,900  Level Aus ATC (RADAR)
01:29AM -20.5064 150.8533 162° South 446 513 40,900  Level Aus ATC (RADAR)
01:29AM -20.5741 150.8767 162° South 441 507 40,900  Level Aus ATC (RADAR)
01:30AM -20.6714 150.9111 162° South 442 509 40,900  Level Aus ATC (RADAR)
01:31AM -20.7200 150.9280 162° South 442 509 40,900  Level Aus ATC (RADAR)
01:32AM -20.8645 150.9787 162° South 439 505 40,900  Level Aus ATC (RADAR)
01:32AM -20.9030 150.9919 162° South 439 505 40,900  Level Aus ATC (RADAR)
01:33AM -20.9699 151.0160 161° South 435 501 40,900  Level Aus ATC (RADAR)
01:34AM -21.0652 151.0493 162° South 434 499 40,900  Level Aus ATC (RADAR)
01:34AM -21.1324 151.0733 162° South 437 503 40,900  Level Aus ATC (RADAR)
01:35AM -21.2276 151.1067 162° South 434 499 40,900  Level Aus ATC (RADAR)
01:35AM -21.2440 151.1130 162° South 41,000  Climbing FlightAware
01:36AM -21.3798 151.1604 162° South 434 499 40,900 -120 Descending Aus ATC (RADAR)
01:37AM -21.4369 151.1805 162° South 432 497 40,900  Level Aus ATC (RADAR)
01:37AM -21.4847 151.1977 161° South 434 499 40,900  Level Aus ATC (RADAR)
01:37AM -21.4910 151.2000 161° South 41,000  Climbing FlightAware
01:38AM -21.5612 151.2249 161° South 435 501 40,900 -120 Descending Aus ATC (RADAR)
01:39AM -21.6475 151.2559 162° South 438 504 40,900  Level Aus ATC (RADAR)
01:39AM -21.7145 151.2797 162° South 434 499 40,900 60 Level Aus ATC (RADAR)
01:40AM -21.7740 151.3010 162° South 428 493 41,000  Climbing FlightAware
01:40AM -21.8389 151.3237 162° South 434 499 40,900  Descending Aus ATC (RADAR)
01:40AM -21.8370 151.3240 162° South 428 493 41,000 180 Climbing FlightAware
01:41AM -21.8890 151.3420 162° South 437 503 41,000 -240 Level FlightAware
01:41AM -21.9067 151.3477 162° South 440 506 40,900  Descending Aus ATC (RADAR)
01:41AM -21.9660 151.3700 161° South 438 504 41,000 60 Climbing FlightAware
01:42AM -22.0350 151.3940 161° South 439 505 41,000 -180 Level FlightAware
01:42AM -22.0415 151.3961 161° South 442 509 40,900  Descending Aus ATC (RADAR)
01:42AM -22.0700 151.4070 161° South 439 505 41,000  Climbing FlightAware
01:43AM -22.1476 151.4341 161° South 441 507 40,900  Descending Aus ATC (RADAR)
01:44AM -22.2040 151.4550 161° South 440 506 41,000 60 Climbing FlightAware
01:44AM -22.2840 151.4840 161° South 439 505 41,000 -60 Level FlightAware
01:45AM -22.4084 151.5278 161° South 441 507 40,900  Descending Aus ATC (RADAR)
01:45AM -22.4100 151.5290 161° South 441 507 41,000 240 Climbing FlightAware
01:46AM -22.4480 151.5430 161° South 441 507 41,000 -120 Level FlightAware
01:46AM -22.5156 151.5663 161° South 445 512 40,900  Descending Aus ATC (RADAR)
01:47AM -22.5580 151.5800 161° South 432 497 41,000 120 Climbing FlightAware
01:47AM -22.5930 151.5850 172° South 418 481 41,000  Level FlightAware
01:48AM -22.6920 151.5830 181° South 403 464 41,000  Level FlightAware
01:48AM -22.7540 151.5810 182° South 415 478 41,000  Level FlightAware
01:49AM -22.7850 151.5800 182° South 415 478 41,000 -240 Level FlightAware
01:49AM -22.8218 151.5784 182° South 416 479 40,900 -180 Descending Aus ATC (RADAR)
01:49AM -22.8603 151.5773 182° South 417 480 40,900 180 Level Aus ATC (RADAR)
01:49AM -22.8730 151.5780 182° South 418 481 41,000 120 Climbing FlightAware
01:50AM -22.9490 151.5750 182° South 420 483 41,000 -120 Level FlightAware
01:51AM -23.0257 151.5726 182° South 421 484 40,900  Descending Aus ATC (RADAR)
01:51AM -23.0290 151.5730 182° South 418 481 41,000 120 Climbing FlightAware
01:51AM -23.0980 151.5710 182° South 416 479 41,000  Level FlightAware
01:52AM -23.1550 151.5690 182° South 406 467 41,000  Level FlightAware
01:52AM -23.2230 151.5670 182° South 415 478 41,000 -120 Level FlightAware
01:53AM -23.2847 151.5648 182° South 415 478 40,900  Descending Aus ATC (RADAR)
01:53AM -23.3490 151.5640 182° South 416 479 41,000 60 Climbing FlightAware
01:54AM -23.4140 151.5620 182° South 416 479 41,000  Level FlightAware
01:55AM -23.4920 151.5590 182° South 416 479 41,000 -60 Level FlightAware
01:56AM -23.6118 151.5551 182° South 417 480 40,900  Descending Aus ATC (RADAR)
01:56AM -23.6150 151.5560 182° South 418 481 41,000 60 Climbing FlightAware
01:57AM -23.7350 151.5520 182° South 419 482 41,000  Level FlightAware
01:58AM -23.8420 151.5490 182° South 415 478 41,000 -120 Level FlightAware
01:58AM -23.8452 151.5485 182° South 421 484 40,900 -120 Descending Aus ATC (RADAR)
01:59AM -23.9527 151.5454 182° South 422 486 40,900 60 Level Aus ATC (RADAR)
01:59AM -23.9800 151.5450 182° South 415 478 41,000 120 Climbing FlightAware
01:59AM -24.0380 151.5430 182° South 415 478 41,000 -180 Level FlightAware
01:59AM -24.0505 151.5424 182° South 423 487 40,900 -180 Descending Aus ATC (RADAR)
02:00AM -24.1189 151.5405 182° South 422 486 40,900 120 Level Aus ATC (RADAR)
02:00AM -24.1470 151.5400 182° South 419 482 41,000 120 Climbing FlightAware
02:01AM -24.2150 151.5380 182° South 419 482 41,000  Level FlightAware
02:01AM -24.2730 151.5360 182° South 419 482 41,000 -120 Level FlightAware
02:02AM -24.3672 151.5324 182° South 438 504 40,900  Descending Aus ATC (RADAR)
02:02AM -24.3840 151.5330 182° South 421 484 41,000  Climbing FlightAware
02:03AM -24.4758 151.5289 182° South 426 490 40,900  Descending Aus ATC (RADAR)
02:03AM -24.5030 151.5290 182° South 422 486 41,000 120 Climbing FlightAware
02:04AM -24.5710 151.5270 182° South 422 486 41,000  Level FlightAware
02:04AM -24.6500 151.5250 181° South 419 482 41,000  Level FlightAware
02:05AM -24.7190 151.5230 182° South 422 486 41,000 -120 Level FlightAware
02:06AM -24.7801 151.5208 182° South 428 493 40,900  Descending Aus ATC (RADAR)
02:06AM -24.7880 151.5200 182° South 433 498 41,000 120 Climbing FlightAware
02:06AM -24.8690 151.5180 181° South 436 502 41,000  Level FlightAware
02:07AM -24.9910 151.5140 182° South 431 496 41,000  Level FlightAware
02:08AM -25.0410 151.5130 182° South 432 497 41,000 -180 Level FlightAware
02:08AM -25.0747 151.5107 182° South 438 504 40,900  Descending Aus ATC (RADAR)
02:08AM -25.1090 151.5120 181° South 432 497 41,000 60 Climbing FlightAware
02:09AM -25.1700 151.5100 182° South 432 497 41,000  Level FlightAware
02:10AM -25.2520 151.5090 181° South 432 497 41,000  Level FlightAware
02:10AM -25.3130 151.5080 181° South 432 497 41,000  Level FlightAware
02:11AM -25.4240 151.5010 183° South 427 491 41,000 -120 Level FlightAware
02:12AM -25.5231 151.4978 183° South 426 490 40,900  Descending Aus ATC (RADAR)
02:12AM -25.5570 151.4970 183° South 426 490 41,000  Climbing FlightAware
02:13AM -25.6413 151.4945 183° South 426 490 40,900 -120 Descending Aus ATC (RADAR)
02:13AM -25.6805 151.4934 182° South 424 488 40,900 240 Level Aus ATC (RADAR)
02:13AM -25.6890 151.4930 182° South 425 489 41,000  Climbing FlightAware
02:14AM -25.7501 151.5047 182° South 443 510 40,900  Descending Aus ATC (RADAR)
02:14AM -25.7620 151.5140 182° South 460 529 41,000 120 Climbing FlightAware
02:14AM -25.8320 151.5780 141° Southeast 481 554 41,000 -120 Level FlightAware
02:15AM -25.9020 151.6478 141° Southeast 476 548 40,900  Descending Aus ATC (RADAR)
02:15AM -25.9380 151.6850 141° Southeast 479 551 41,000  Climbing FlightAware
02:16AM -25.9923 151.7380 141° Southeast 474 545 40,900  Descending Aus ATC (RADAR)
02:16AM -25.9910 151.7380 141° Southeast 478 550 41,000 120 Climbing FlightAware
02:17AM -26.0530 151.8000 138° Southeast 477 549 41,000  Level FlightAware
02:17AM -26.1090 151.8560 138° Southeast 477 549 41,000 -120 Level FlightAware
02:18AM -26.1803 151.9267 138° Southeast 475 547 40,900  Descending Aus ATC (RADAR)
02:18AM -26.1840 151.9310 138° Southeast 477 549 41,000  Climbing FlightAware
02:19AM -26.2619 152.0087 138° Southeast 471 542 40,900  Descending Aus ATC (RADAR)
02:19AM -26.2870 152.0350 138° Southeast 476 548 41,000 -1,320 Climbing FlightAware
02:20AM -26.3518 152.0989 138° Southeast 468 539 39,700 -1,800 Descending Aus ATC (RADAR)
02:20AM -26.3520 152.1000 138° Southeast 476 548 39,800 -1,260 Climbing FlightAware
02:20AM -26.4070 152.1550 138° Southeast 465 535 39,000 -1,440 Descending FlightAware
02:21AM -26.4480 152.1980 137° Southeast 455 524 38,400 -1,380 Descending FlightAware
02:21AM -26.5210 152.2710 138° Southeast 442 509 37,300 -1,440 Descending FlightAware
02:22AM -26.5800 152.3300 138° Southeast 430 495 36,400 -1,620 Descending FlightAware
02:23AM -26.6556 152.4073 138° Southeast 413 475 34,900 -1,620 Descending Aus ATC (RADAR)
02:23AM -26.6710 152.4230 138° Southeast 418 481 34,700 -1,440 Descending FlightAware
02:24AM -26.7270 152.4810 137° Southeast 407 468 33,700 -1,620 Descending FlightAware
02:25AM -26.8008 152.5563 137° Southeast 389 448 32,200 -1,560 Descending Aus ATC (RADAR)
02:25AM -26.8000 152.5550 137° Southeast 395 455 32,300 -1,500 Climbing FlightAware
02:26AM -26.8710 152.6260 137° Southeast 387 445 30,900 -1,800 Descending FlightAware
02:26AM -26.8747 152.6301 137° Southeast 380 437 30,700 -1,500 Descending Aus ATC (RADAR)
02:26AM -26.9000 152.6820 120° Southeast 401 461 30,100 -1,320 Descending FlightAware
02:27AM -26.8780 152.7570 72° East 378 435 29,200 -1,440 Descending FlightAware
02:27AM -26.8230 152.7810 21° North 346 398 28,300 -1,440 Descending FlightAware
02:28AM -26.7820 152.7680 21° North 324 373 27,700 -1,680 Descending FlightAware
02:28AM -26.7732 152.7652 21° North 339 390 27,400 -1,800 Descending Aus ATC (RADAR)
02:28AM -26.7479 152.7355 21° North 315 362 26,800 -1,140 Descending Aus ATC (RADAR)
02:28AM -26.7470 152.7340 21° North 312 359 26,900 -1,560 Climbing FlightAware
02:29AM -26.7109 152.6979 21° North 308 354 25,900 -1,500 Descending Aus ATC (RADAR)
02:29AM -26.7000 152.6860 21° North 305 351 25,800 -1,200 Descending FlightAware
02:30AM -26.6680 152.6540 318° Northwest 301 346 25,100 -1,380 Descending FlightAware
02:30AM -26.6410 152.6170 309° West 286 329 24,400 -1,380 Descending FlightAware
02:31AM -26.6330 152.5820 284° West 278 320 23,800 -1,740 Descending FlightAware
02:31AM -26.6418 152.5385 284° West 275 316 22,800 -1,680 Descending Aus ATC (RADAR)
02:31AM -26.6560 152.5190 229° Southwest 278 320 22,500 -1,440 Descending FlightAware
02:32AM -26.6630 152.5115 229° Southwest 280 322 22,200 -1,680 Descending Aus ATC (RADAR)
02:32AM -26.7082 152.4913 229° Southwest 311 358 21,300 -1,440 Descending Aus ATC (RADAR)
02:32AM -26.7240 152.4960 229° Southwest 298 343 21,100 -1,260 Descending FlightAware
02:33AM -26.7590 152.5140 155° Southeast 313 360 20,500 -1,200 Descending FlightAware
02:33AM -26.7918 152.5465 155° Southeast 308 354 20,000 -960 Descending Aus ATC (RADAR)
02:34AM -26.8078 152.5628 138° Southeast 307 353 19,800 -720 Descending Aus ATC (RADAR)
02:34AM -26.8200 152.5750 138° Southeast 307 353 19,700 -840 Descending FlightAware
02:34AM -26.8550 152.6110 137° Southeast 299 344 19,200 -1,260 Descending FlightAware
02:35AM -26.8928 152.6537 137° Southeast 286 329 18,200 -1,320 Descending Aus ATC (RADAR)
02:35AM -26.8930 152.6740 137° Southeast 316 364 18,100 -900 Descending FlightAware
02:36AM -26.8560 152.7300 53° Northeast 308 354 17,400 -960 Descending FlightAware
02:36AM -26.8094 152.7241 53° Northeast 307 353 16,900 -780 Descending Aus ATC (RADAR)
02:37AM -26.8050 152.7160 53° Northeast 282 325 16,900 -720 Level FlightAware
02:37AM -26.7632 152.6747 53° Northeast 271 312 16,300 -780 Descending Aus ATC (RADAR)
02:37AM -26.7610 152.6720 53° Northeast 271 312 16,300 -840 Level FlightAware
02:38AM -26.7210 152.6310 318° Northwest 274 315 15,700 -540 Descending FlightAware
02:39AM -26.7000 152.6090 317° Northwest 274 315 15,700  Level FlightAware
02:39AM -26.6620 152.5690 317° Northwest 274 315 15,700 -1,140 Level FlightAware
02:40AM -26.7271 152.5275 317° Northwest 271 312 14,100  Descending Aus ATC (RADAR)
02:40AM -26.6240 152.5300 317° Northwest 274 315 15,700 -780 Climbing FlightAware
02:41AM -26.7759 152.5302 317° Northwest 274 315 13,600  Descending Aus ATC (RADAR)
02:41AM -26.5960 152.5000 317° Northwest 274 315 15,700 2,880 Climbing FlightAware
02:41AM -26.5660 152.4700 318° Northwest 274 315 15,700  Level FlightAware
02:42AM -26.5370 152.4390 316° Northwest 274 315 15,700 -2,520 Level FlightAware
02:43AM -26.9424 152.7003 316° Northwest 300 345 10,800 -3,180 Descending Aus ATC (RADAR)
02:44AM -26.9681 152.7267 138° Southeast 297 342 10,200 360 Descending Aus ATC (RADAR)
02:44AM -26.9810 152.7440 138° Southeast 304 350 11,100 900 Climbing FlightAware
02:45AM -27.0120 152.7770 137° Southeast 304 350 11,100  Level FlightAware
02:45AM -27.0240 152.7900 136° Southeast 304 350 11,100 -3,600 Level FlightAware
02:46AM -27.0827 152.8468 136° Southeast 285 328 7,800 -2,880 Descending Aus ATC (RADAR)
02:46AM -27.1354 152.8902 144° Southeast 279 321 6,800 -960 Descending Aus ATC (RADAR)
02:47AM -27.1689 152.8918 178° South 281 323 6,600 -600 Descending Aus ATC (RADAR)
02:47AM -27.2135 152.8986 172° South 276 318 6,200 -600 Descending Aus ATC (RADAR)
02:48AM -27.2830 152.9082 173° South 272 313 5,700 -600 Descending Aus ATC (RADAR)
02:49AM -27.3140 152.9125 173° South 269 310 5,400 -660 Descending Aus ATC (RADAR)
02:49AM -27.3641 152.9195 173° South 270 311 5,000 -600 Descending Aus ATC (RADAR)
02:50AM -27.4125 152.9262 173° South 260 299 4,600 -600 Descending Aus ATC (RADAR)
02:51AM -27.4570 152.9325 173° South 241 277 4,200 -480 Descending Aus ATC (RADAR)
02:52AM -27.5064 152.9394 173° South 237 273 4,000 -120 Descending Aus ATC (RADAR)
02:52AM -27.5210 152.9460 173° South 225 259 4,100 -180 Climbing FlightAware
02:52AM -27.5400 152.9710 131° Southeast 206 237 3,900 -720 Descending FlightAware
02:53AM -27.5580 152.9970 128° Southeast 184 212 3,300 -600 Descending FlightAware
02:53AM -27.5700 153.0150 128° Southeast 184 212 3,300 -600 Level FlightAware
02:53AM -27.5562 153.0278 128° Southeast 163 188 3,000 -900 Descending Aus ATC (RADAR)
02:54AM -27.5209 153.0511 128° Southeast 162 186 2,500 -660 Descending Aus ATC (RADAR)
02:55AM -27.4871 153.0700 26° Northeast 135 155 1,800 -720 Descending Aus ATC (RADAR)
02:56AM -27.4682 153.0813 28° Northeast 132 152 1,400 -720 Descending Aus ATC (RADAR)
02:57AM -27.4441 153.0948 27° Northeast 131 151 900 -720 Descending Aus ATC (RADAR)
02:57AM -27.4248 153.1058 27° Northeast 134 154 500 -720 Descending Aus ATC (RADAR)